sensor_id;sensor_type;location;lat;lon;timestamp;P1;durP1;ratioP1;P2;durP2;ratioP2
39344;SDS011;25061;51.954;6.996;2023-02-28T00:00:05;10.40;;;5.00;;
39344;SDS011;25061;51.954;6.996;2023-02-28T00:02:35;10.02;;;3.97;;
39344;SDS011;25061;51.954;6.996;2023-02-28T00:05:05;9.85;;;4.55;;
39344;SDS011;25061;51.954;6.996;2023-02-28T00:07:31;10.38;;;3.95;;
39344;SDS011;25061;51.954;6.996;2023-02-28T00:09:57;9.20;;;3.58;;
39344;SDS011;25061;51.954;6.996;2023-02-28T00:12:23;9.45;;;3.42;;
39344;SDS011;25061;51.954;6.996;2023-02-28T00:14:49;9.35;;;4.15;;
39344;SDS011;25061;51.954;6.996;2023-02-28T00:17:15;9.68;;;3.80;;
39344;SDS011;25061;51.954;6.996;2023-02-28T00:19:49;10.13;;;4.07;;
39344;SDS011;25061;51.954;6.996;2023-02-28T00:22:16;8.60;;;3.45;;
39344;SDS011;25061;51.954;6.996;2023-02-28T00:24:44;9.32;;;3.60;;
39344;SDS011;25061;51.954;6.996;2023-02-28T00:27:10;9.10;;;4.00;;
39344;SDS011;25061;51.954;6.996;2023-02-28T00:29:36;9.33;;;3.47;;
39344;SDS011;25061;51.954;6.996;2023-02-28T00:32:02;8.60;;;3.53;;
39344;SDS011;25061;51.954;6.996;2023-02-28T00:34:29;10.87;;;3.67;;
39344;SDS011;25061;51.954;6.996;2023-02-28T00:36:54;9.52;;;3.92;;
39344;SDS011;25061;51.954;6.996;2023-02-28T00:39:20;8.80;;;3.25;;
39344;SDS011;25061;51.954;6.996;2023-02-28T00:41:45;9.23;;;3.38;;
39344;SDS011;25061;51.954;6.996;2023-02-28T00:44:11;8.73;;;3.63;;
39344;SDS011;25061;51.954;6.996;2023-02-28T00:46:37;9.48;;;3.67;;
39344;SDS011;25061;51.954;6.996;2023-02-28T00:49:02;10.93;;;3.80;;
39344;SDS011;25061;51.954;6.996;2023-02-28T00:51:28;8.15;;;3.67;;
39344;SDS011;25061;51.954;6.996;2023-02-28T00:53:53;10.10;;;3.10;;
39344;SDS011;25061;51.954;6.996;2023-02-28T00:56:19;10.80;;;3.90;;
39344;SDS011;25061;51.954;6.996;2023-02-28T00:58:45;8.73;;;3.63;;
39344;SDS011;25061;51.954;6.996;2023-02-28T01:01:10;8.82;;;3.40;;
39344;SDS011;25061;51.954;6.996;2023-02-28T01:03:36;7.85;;;3.42;;
39344;SDS011;25061;51.954;6.996;2023-02-28T01:06:02;9.23;;;3.55;;
39344;SDS011;25061;51.954;6.996;2023-02-28T01:08:28;8.38;;;3.47;;
39344;SDS011;25061;51.954;6.996;2023-02-28T01:10:54;9.60;;;3.78;;
39344;SDS011;25061;51.954;6.996;2023-02-28T01:13:19;16.45;;;4.32;;
39344;SDS011;25061;51.954;6.996;2023-02-28T01:15:52;14.35;;;4.05;;
39344;SDS011;25061;51.954;6.996;2023-02-28T01:18:21;9.48;;;4.35;;
39344;SDS011;25061;51.954;6.996;2023-02-28T01:20:47;9.52;;;3.63;;
39344;SDS011;25061;51.954;6.996;2023-02-28T01:23:12;9.00;;;3.72;;
39344;SDS011;25061;51.954;6.996;2023-02-28T01:25:38;10.35;;;3.72;;
39344;SDS011;25061;51.954;6.996;2023-02-28T01:28:04;12.63;;;4.20;;
39344;SDS011;25061;51.954;6.996;2023-02-28T01:30:31;10.20;;;4.00;;
39344;SDS011;25061;51.954;6.996;2023-02-28T01:32:57;9.85;;;3.75;;
39344;SDS011;25061;51.954;6.996;2023-02-28T01:35:23;10.88;;;3.90;;
39344;SDS011;25061;51.954;6.996;2023-02-28T01:37:48;8.00;;;3.43;;
39344;SDS011;25061;51.954;6.996;2023-02-28T01:40:14;9.15;;;3.40;;
39344;SDS011;25061;51.954;6.996;2023-02-28T01:42:40;7.70;;;3.00;;
39344;SDS011;25061;51.954;6.996;2023-02-28T01:48:03;8.82;;;3.67;;
39344;SDS011;25061;51.954;6.996;2023-02-28T01:50:34;14.15;;;4.60;;
39344;SDS011;25061;51.954;6.996;2023-02-28T01:53:04;14.23;;;4.15;;
39344;SDS011;25061;51.954;6.996;2023-02-28T01:55:33;9.15;;;3.40;;
39344;SDS011;25061;51.954;6.996;2023-02-28T01:58:01;9.88;;;3.90;;
39344;SDS011;25061;51.954;6.996;2023-02-28T02:00:29;7.20;;;2.97;;
39344;SDS011;25061;51.954;6.996;2023-02-28T02:02:57;7.20;;;3.08;;
39344;SDS011;25061;51.954;6.996;2023-02-28T02:05:26;8.35;;;2.83;;
39344;SDS011;25061;51.954;6.996;2023-02-28T02:07:56;8.55;;;3.40;;
39344;SDS011;25061;51.954;6.996;2023-02-28T02:10:29;8.43;;;3.08;;
39344;SDS011;25061;51.954;6.996;2023-02-28T02:21:47;14.70;;;3.22;;
39344;SDS011;25061;51.954;6.996;2023-02-28T02:24:44;6.97;;;2.63;;
39344;SDS011;25061;51.954;6.996;2023-02-28T02:33:33;7.97;;;2.80;;
39344;SDS011;25061;51.954;6.996;2023-02-28T02:36:29;9.52;;;3.33;;
39344;SDS011;25061;51.954;6.996;2023-02-28T02:39:11;8.25;;;3.15;;
39344;SDS011;25061;51.954;6.996;2023-02-28T02:41:53;7.55;;;3.20;;
39344;SDS011;25061;51.954;6.996;2023-02-28T02:44:36;7.28;;;3.05;;
39344;SDS011;25061;51.954;6.996;2023-02-28T02:47:10;9.18;;;2.83;;
39344;SDS011;25061;51.954;6.996;2023-02-28T02:49:39;7.38;;;2.60;;
39344;SDS011;25061;51.954;6.996;2023-02-28T02:52:11;7.72;;;3.20;;
39344;SDS011;25061;51.954;6.996;2023-02-28T02:54:43;7.85;;;3.10;;
39344;SDS011;25061;51.954;6.996;2023-02-28T02:57:13;6.53;;;2.70;;
39344;SDS011;25061;51.954;6.996;2023-02-28T02:59:44;8.40;;;2.55;;
39344;SDS011;25061;51.954;6.996;2023-02-28T03:02:11;7.93;;;3.15;;
39344;SDS011;25061;51.954;6.996;2023-02-28T03:04:43;7.60;;;2.90;;
39344;SDS011;25061;51.954;6.996;2023-02-28T03:07:13;9.00;;;3.38;;
39344;SDS011;25061;51.954;6.996;2023-02-28T03:09:39;8.38;;;2.72;;
39344;SDS011;25061;51.954;6.996;2023-02-28T03:12:04;9.05;;;2.53;;
39344;SDS011;25061;51.954;6.996;2023-02-28T03:17:48;8.50;;;2.67;;
39344;SDS011;25061;51.954;6.996;2023-02-28T03:23:05;6.83;;;2.67;;
39344;SDS011;25061;51.954;6.996;2023-02-28T03:28:29;6.50;;;2.53;;
39344;SDS011;25061;51.954;6.996;2023-02-28T03:31:02;6.35;;;2.47;;
39344;SDS011;25061;51.954;6.996;2023-02-28T03:33:49;6.50;;;2.60;;
39344;SDS011;25061;51.954;6.996;2023-02-28T03:36:21;6.70;;;2.40;;
39344;SDS011;25061;51.954;6.996;2023-02-28T03:38:54;8.13;;;3.03;;
39344;SDS011;25061;51.954;6.996;2023-02-28T03:42:28;9.95;;;3.17;;
39344;SDS011;25061;51.954;6.996;2023-02-28T03:44:25;6.40;;;2.30;;
39344;SDS011;25061;51.954;6.996;2023-02-28T03:47:03;8.67;;;2.87;;
39344;SDS011;25061;51.954;6.996;2023-02-28T03:49:43;8.73;;;2.90;;
39344;SDS011;25061;51.954;6.996;2023-02-28T03:52:13;7.47;;;2.80;;
39344;SDS011;25061;51.954;6.996;2023-02-28T03:54:45;7.10;;;2.60;;
39344;SDS011;25061;51.954;6.996;2023-02-28T04:00:19;9.23;;;3.17;;
39344;SDS011;25061;51.954;6.996;2023-02-28T04:02:53;8.17;;;2.90;;
39344;SDS011;25061;51.954;6.996;2023-02-28T04:05:19;9.27;;;2.63;;
39344;SDS011;25061;51.954;6.996;2023-02-28T04:07:46;6.97;;;2.60;;
39344;SDS011;25061;51.954;6.996;2023-02-28T04:10:12;6.10;;;2.57;;
39344;SDS011;25061;51.954;6.996;2023-02-28T04:12:38;7.73;;;2.77;;
39344;SDS011;25061;51.954;6.996;2023-02-28T04:15:03;7.17;;;2.93;;
39344;SDS011;25061;51.954;6.996;2023-02-28T04:17:30;8.13;;;3.10;;
39344;SDS011;25061;51.954;6.996;2023-02-28T04:19:55;9.73;;;3.03;;
39344;SDS011;25061;51.954;6.996;2023-02-28T04:22:22;5.63;;;2.40;;
39344;SDS011;25061;51.954;6.996;2023-02-28T04:24:50;8.30;;;3.17;;
39344;SDS011;25061;51.954;6.996;2023-02-28T04:27:16;7.17;;;3.00;;
39344;SDS011;25061;51.954;6.996;2023-02-28T04:29:41;6.10;;;2.63;;
39344;SDS011;25061;51.954;6.996;2023-02-28T04:32:09;6.97;;;2.97;;
39344;SDS011;25061;51.954;6.996;2023-02-28T04:34:35;7.73;;;3.10;;
39344;SDS011;25061;51.954;6.996;2023-02-28T04:37:01;7.37;;;2.63;;
39344;SDS011;25061;51.954;6.996;2023-02-28T04:39:28;12.83;;;3.80;;
39344;SDS011;25061;51.954;6.996;2023-02-28T04:41:54;6.87;;;2.90;;
39344;SDS011;25061;51.954;6.996;2023-02-28T04:44:20;9.27;;;3.40;;
39344;SDS011;25061;51.954;6.996;2023-02-28T04:46:47;8.13;;;3.13;;
39344;SDS011;25061;51.954;6.996;2023-02-28T04:49:13;8.03;;;3.33;;
39344;SDS011;25061;51.954;6.996;2023-02-28T04:51:38;7.27;;;3.00;;
39344;SDS011;25061;51.954;6.996;2023-02-28T04:54:04;7.37;;;3.03;;
39344;SDS011;25061;51.954;6.996;2023-02-28T04:56:30;8.47;;;2.97;;
39344;SDS011;25061;51.954;6.996;2023-02-28T04:58:55;7.57;;;2.80;;
39344;SDS011;25061;51.954;6.996;2023-02-28T05:01:25;7.53;;;3.67;;
39344;SDS011;25061;51.954;6.996;2023-02-28T05:03:53;8.17;;;3.20;;
39344;SDS011;25061;51.954;6.996;2023-02-28T05:06:21;9.13;;;3.03;;
39344;SDS011;25061;51.954;6.996;2023-02-28T05:08:48;10.07;;;3.17;;
39344;SDS011;25061;51.954;6.996;2023-02-28T05:13:48;8.07;;;3.50;;
39344;SDS011;25061;51.954;6.996;2023-02-28T05:16:15;7.10;;;3.10;;
39344;SDS011;25061;51.954;6.996;2023-02-28T05:18:41;6.50;;;2.67;;
39344;SDS011;25061;51.954;6.996;2023-02-28T05:21:15;7.97;;;3.20;;
39344;SDS011;25061;51.954;6.996;2023-02-28T05:23:48;7.07;;;2.80;;
39344;SDS011;25061;51.954;6.996;2023-02-28T05:26:14;9.73;;;3.77;;
39344;SDS011;25061;51.954;6.996;2023-02-28T05:28:39;9.07;;;3.27;;
39344;SDS011;25061;51.954;6.996;2023-02-28T05:31:05;10.03;;;3.53;;
39344;SDS011;25061;51.954;6.996;2023-02-28T05:33:30;8.47;;;3.53;;
39344;SDS011;25061;51.954;6.996;2023-02-28T05:35:56;10.57;;;3.47;;
39344;SDS011;25061;51.954;6.996;2023-02-28T05:38:21;8.77;;;3.57;;
39344;SDS011;25061;51.954;6.996;2023-02-28T05:40:47;8.67;;;3.50;;
39344;SDS011;25061;51.954;6.996;2023-02-28T05:43:12;9.27;;;3.70;;
39344;SDS011;25061;51.954;6.996;2023-02-28T05:45:38;9.33;;;3.60;;
39344;SDS011;25061;51.954;6.996;2023-02-28T05:48:04;8.17;;;3.60;;
39344;SDS011;25061;51.954;6.996;2023-02-28T05:50:29;9.83;;;4.67;;
39344;SDS011;25061;51.954;6.996;2023-02-28T05:52:55;10.87;;;4.93;;
39344;SDS011;25061;51.954;6.996;2023-02-28T05:55:20;9.73;;;4.23;;
39344;SDS011;25061;51.954;6.996;2023-02-28T05:57:46;9.73;;;4.50;;
39344;SDS011;25061;51.954;6.996;2023-02-28T06:00:12;10.90;;;4.43;;
39344;SDS011;25061;51.954;6.996;2023-02-28T06:02:39;9.93;;;4.00;;
39344;SDS011;25061;51.954;6.996;2023-02-28T06:05:07;10.33;;;4.40;;
39344;SDS011;25061;51.954;6.996;2023-02-28T06:07:41;10.07;;;4.80;;
39344;SDS011;25061;51.954;6.996;2023-02-28T06:10:09;9.40;;;4.40;;
39344;SDS011;25061;51.954;6.996;2023-02-28T06:12:36;12.17;;;4.70;;
39344;SDS011;25061;51.954;6.996;2023-02-28T06:15:02;10.00;;;4.60;;
39344;SDS011;25061;51.954;6.996;2023-02-28T06:17:27;10.53;;;4.83;;
39344;SDS011;25061;51.954;6.996;2023-02-28T06:19:53;11.77;;;4.93;;
39344;SDS011;25061;51.954;6.996;2023-02-28T06:22:19;10.50;;;4.57;;
39344;SDS011;25061;51.954;6.996;2023-02-28T06:24:44;10.77;;;4.43;;
39344;SDS011;25061;51.954;6.996;2023-02-28T06:27:10;13.57;;;4.40;;
39344;SDS011;25061;51.954;6.996;2023-02-28T06:29:35;11.57;;;4.30;;
39344;SDS011;25061;51.954;6.996;2023-02-28T06:32:04;10.20;;;4.50;;
39344;SDS011;25061;51.954;6.996;2023-02-28T06:34:30;13.60;;;5.07;;
39344;SDS011;25061;51.954;6.996;2023-02-28T06:36:56;11.40;;;4.50;;
39344;SDS011;25061;51.954;6.996;2023-02-28T06:39:21;11.50;;;5.17;;
39344;SDS011;25061;51.954;6.996;2023-02-28T06:41:47;14.13;;;4.37;;
39344;SDS011;25061;51.954;6.996;2023-02-28T06:44:13;10.10;;;4.40;;
39344;SDS011;25061;51.954;6.996;2023-02-28T06:46:41;11.17;;;4.30;;
39344;SDS011;25061;51.954;6.996;2023-02-28T06:49:07;15.60;;;5.00;;
39344;SDS011;25061;51.954;6.996;2023-02-28T06:51:36;13.00;;;5.70;;
39344;SDS011;25061;51.954;6.996;2023-02-28T06:54:04;16.20;;;5.90;;
39344;SDS011;25061;51.954;6.996;2023-02-28T06:56:30;12.77;;;5.03;;
39344;SDS011;25061;51.954;6.996;2023-02-28T06:58:56;10.23;;;4.77;;
39344;SDS011;25061;51.954;6.996;2023-02-28T07:01:21;12.13;;;4.87;;
39344;SDS011;25061;51.954;6.996;2023-02-28T07:03:48;10.50;;;4.68;;
39344;SDS011;25061;51.954;6.996;2023-02-28T07:06:17;10.20;;;4.47;;
39344;SDS011;25061;51.954;6.996;2023-02-28T07:08:43;10.43;;;5.20;;
39344;SDS011;25061;51.954;6.996;2023-02-28T07:11:09;12.27;;;6.60;;
39344;SDS011;25061;51.954;6.996;2023-02-28T07:13:35;11.20;;;5.50;;
39344;SDS011;25061;51.954;6.996;2023-02-28T07:16:02;12.70;;;5.97;;
39344;SDS011;25061;51.954;6.996;2023-02-28T07:18:29;12.93;;;5.82;;
39344;SDS011;25061;51.954;6.996;2023-02-28T07:20:55;15.27;;;5.82;;
39344;SDS011;25061;51.954;6.996;2023-02-28T07:23:21;12.00;;;5.45;;
39344;SDS011;25061;51.954;6.996;2023-02-28T07:25:47;10.27;;;4.63;;
39344;SDS011;25061;51.954;6.996;2023-02-28T07:28:13;9.40;;;4.20;;
39344;SDS011;25061;51.954;6.996;2023-02-28T07:30:39;10.00;;;4.40;;
39344;SDS011;25061;51.954;6.996;2023-02-28T07:33:05;9.87;;;4.63;;
39344;SDS011;25061;51.954;6.996;2023-02-28T07:35:30;10.40;;;4.50;;
39344;SDS011;25061;51.954;6.996;2023-02-28T07:37:59;9.63;;;4.18;;
39344;SDS011;25061;51.954;6.996;2023-02-28T07:40:25;10.70;;;4.85;;
39344;SDS011;25061;51.954;6.996;2023-02-28T07:42:51;8.77;;;4.03;;
39344;SDS011;25061;51.954;6.996;2023-02-28T07:45:17;8.75;;;3.70;;
39344;SDS011;25061;51.954;6.996;2023-02-28T07:47:44;10.38;;;3.67;;
39344;SDS011;25061;51.954;6.996;2023-02-28T07:50:11;8.70;;;3.50;;
39344;SDS011;25061;51.954;6.996;2023-02-28T07:52:38;8.52;;;3.42;;
39344;SDS011;25061;51.954;6.996;2023-02-28T07:55:04;8.02;;;3.45;;
39344;SDS011;25061;51.954;6.996;2023-02-28T07:57:31;7.63;;;2.50;;
39344;SDS011;25061;51.954;6.996;2023-02-28T07:59:57;10.13;;;3.63;;
39344;SDS011;25061;51.954;6.996;2023-02-28T08:04:52;6.07;;;2.38;;
39344;SDS011;25061;51.954;6.996;2023-02-28T08:07:18;6.70;;;2.20;;
39344;SDS011;25061;51.954;6.996;2023-02-28T08:09:43;6.45;;;2.13;;
39344;SDS011;25061;51.954;6.996;2023-02-28T08:12:10;7.25;;;2.53;;
39344;SDS011;25061;51.954;6.996;2023-02-28T08:14:36;8.50;;;2.65;;
39344;SDS011;25061;51.954;6.996;2023-02-28T08:17:02;5.75;;;2.25;;
39344;SDS011;25061;51.954;6.996;2023-02-28T08:19:28;6.18;;;2.13;;
39344;SDS011;25061;51.954;6.996;2023-02-28T08:21:55;5.90;;;2.33;;
39344;SDS011;25061;51.954;6.996;2023-02-28T08:24:21;5.90;;;2.05;;
39344;SDS011;25061;51.954;6.996;2023-02-28T08:26:47;5.38;;;2.17;;
39344;SDS011;25061;51.954;6.996;2023-02-28T08:29:13;6.25;;;1.80;;
39344;SDS011;25061;51.954;6.996;2023-02-28T08:31:38;4.85;;;1.77;;
39344;SDS011;25061;51.954;6.996;2023-02-28T08:34:05;5.25;;;1.80;;
39344;SDS011;25061;51.954;6.996;2023-02-28T08:36:32;4.68;;;1.52;;
39344;SDS011;25061;51.954;6.996;2023-02-28T08:38:58;7.55;;;2.08;;
39344;SDS011;25061;51.954;6.996;2023-02-28T08:41:24;5.43;;;1.77;;
39344;SDS011;25061;51.954;6.996;2023-02-28T08:43:51;6.75;;;2.35;;
39344;SDS011;25061;51.954;6.996;2023-02-28T08:46:16;3.25;;;1.50;;
39344;SDS011;25061;51.954;6.996;2023-02-28T08:48:42;5.40;;;1.95;;
39344;SDS011;25061;51.954;6.996;2023-02-28T08:51:09;6.05;;;1.90;;
39344;SDS011;25061;51.954;6.996;2023-02-28T08:53:37;4.88;;;1.60;;
39344;SDS011;25061;51.954;6.996;2023-02-28T08:56:08;4.57;;;1.50;;
39344;SDS011;25061;51.954;6.996;2023-02-28T08:58:35;4.28;;;1.58;;
39344;SDS011;25061;51.954;6.996;2023-02-28T09:01:12;4.95;;;1.88;;
39344;SDS011;25061;51.954;6.996;2023-02-28T09:03:38;11.70;;;2.15;;
39344;SDS011;25061;51.954;6.996;2023-02-28T09:06:06;6.07;;;1.65;;
39344;SDS011;25061;51.954;6.996;2023-02-28T09:08:32;3.67;;;1.60;;
39344;SDS011;25061;51.954;6.996;2023-02-28T09:10:58;6.32;;;2.13;;
39344;SDS011;25061;51.954;6.996;2023-02-28T09:13:24;5.47;;;1.80;;
39344;SDS011;25061;51.954;6.996;2023-02-28T09:15:51;5.97;;;2.20;;
39344;SDS011;25061;51.954;6.996;2023-02-28T09:18:17;7.28;;;2.10;;
39344;SDS011;25061;51.954;6.996;2023-02-28T09:20:43;6.80;;;2.25;;
39344;SDS011;25061;51.954;6.996;2023-02-28T09:23:10;8.85;;;2.65;;
39344;SDS011;25061;51.954;6.996;2023-02-28T09:25:37;9.68;;;2.60;;
39344;SDS011;25061;51.954;6.996;2023-02-28T09:28:10;6.53;;;2.00;;
39344;SDS011;25061;51.954;6.996;2023-02-28T09:30:36;7.55;;;2.38;;
39344;SDS011;25061;51.954;6.996;2023-02-28T09:33:02;7.47;;;2.65;;
39344;SDS011;25061;51.954;6.996;2023-02-28T09:35:28;7.53;;;2.60;;
39344;SDS011;25061;51.954;6.996;2023-02-28T09:37:55;8.60;;;2.55;;
39344;SDS011;25061;51.954;6.996;2023-02-28T09:40:22;7.47;;;2.58;;
39344;SDS011;25061;51.954;6.996;2023-02-28T09:42:51;7.43;;;2.45;;
39344;SDS011;25061;51.954;6.996;2023-02-28T09:45:24;7.03;;;2.00;;
39344;SDS011;25061;51.954;6.996;2023-02-28T09:47:59;8.50;;;2.10;;
39344;SDS011;25061;51.954;6.996;2023-02-28T09:50:30;7.10;;;2.03;;
39344;SDS011;25061;51.954;6.996;2023-02-28T09:53:13;6.45;;;2.10;;
39344;SDS011;25061;51.954;6.996;2023-02-28T09:55:45;6.50;;;1.98;;
39344;SDS011;25061;51.954;6.996;2023-02-28T10:07:22;4.93;;;1.70;;
39344;SDS011;25061;51.954;6.996;2023-02-28T10:10:14;3.70;;;1.10;;
39344;SDS011;25061;51.954;6.996;2023-02-28T10:13:05;2.75;;;0.80;;
39344;SDS011;25061;51.954;6.996;2023-02-28T10:15:38;3.83;;;1.45;;
39344;SDS011;25061;51.954;6.996;2023-02-28T10:18:04;4.60;;;1.05;;
39344;SDS011;25061;51.954;6.996;2023-02-28T10:20:37;2.90;;;0.80;;
39344;SDS011;25061;51.954;6.996;2023-02-28T10:23:21;3.15;;;0.90;;
39344;SDS011;25061;51.954;6.996;2023-02-28T10:26:00;1.83;;;0.85;;
39344;SDS011;25061;51.954;6.996;2023-02-28T10:28:43;2.78;;;0.90;;
39344;SDS011;25061;51.954;6.996;2023-02-28T10:31:17;1.55;;;0.60;;
39344;SDS011;25061;51.954;6.996;2023-02-28T10:33:44;1.67;;;0.70;;
39344;SDS011;25061;51.954;6.996;2023-02-28T10:36:12;1.77;;;0.80;;
39344;SDS011;25061;51.954;6.996;2023-02-28T10:38:41;2.88;;;0.95;;
39344;SDS011;25061;51.954;6.996;2023-02-28T10:41:08;1.80;;;0.80;;
39344;SDS011;25061;51.954;6.996;2023-02-28T10:43:36;3.50;;;0.90;;
39344;SDS011;25061;51.954;6.996;2023-02-28T10:51:09;1.92;;;0.70;;
39344;SDS011;25061;51.954;6.996;2023-02-28T10:53:38;4.45;;;1.00;;
39344;SDS011;25061;51.954;6.996;2023-02-28T11:01:19;2.70;;;0.95;;
39344;SDS011;25061;51.954;6.996;2023-02-28T11:03:46;3.72;;;1.25;;
39344;SDS011;25061;51.954;6.996;2023-02-28T11:06:13;2.38;;;0.80;;
39344;SDS011;25061;51.954;6.996;2023-02-28T11:08:55;2.97;;;0.95;;
39344;SDS011;25061;51.954;6.996;2023-02-28T11:11:24;4.75;;;1.30;;
39344;SDS011;25061;51.954;6.996;2023-02-28T11:13:58;4.38;;;1.48;;
39344;SDS011;25061;51.954;6.996;2023-02-28T11:16:31;3.60;;;1.10;;
39344;SDS011;25061;51.954;6.996;2023-02-28T11:18:59;3.53;;;1.10;;
39344;SDS011;25061;51.954;6.996;2023-02-28T11:21:29;5.25;;;1.20;;
39344;SDS011;25061;51.954;6.996;2023-02-28T11:29:19;3.05;;;1.02;;
39344;SDS011;25061;51.954;6.996;2023-02-28T11:32:31;2.78;;;1.10;;
39344;SDS011;25061;51.954;6.996;2023-02-28T11:34:38;4.55;;;1.80;;
39344;SDS011;25061;51.954;6.996;2023-02-28T11:37:05;5.88;;;1.58;;
39344;SDS011;25061;51.954;6.996;2023-02-28T11:39:36;3.25;;;1.13;;
39344;SDS011;25061;51.954;6.996;2023-02-28T11:45:02;2.00;;;0.82;;
39344;SDS011;25061;51.954;6.996;2023-02-28T11:52:52;3.33;;;1.50;;
39344;SDS011;25061;51.954;6.996;2023-02-28T11:57:49;3.60;;;1.08;;
39344;SDS011;25061;51.954;6.996;2023-02-28T12:00:30;3.67;;;1.30;;
39344;SDS011;25061;51.954;6.996;2023-02-28T12:03:26;3.17;;;1.10;;
39344;SDS011;25061;51.954;6.996;2023-02-28T12:09:00;3.65;;;1.20;;
39344;SDS011;25061;51.954;6.996;2023-02-28T12:11:46;3.92;;;1.20;;
39344;SDS011;25061;51.954;6.996;2023-02-28T12:14:22;4.00;;;1.15;;
39344;SDS011;25061;51.954;6.996;2023-02-28T12:19:45;3.35;;;1.10;;
39344;SDS011;25061;51.954;6.996;2023-02-28T12:22:31;3.42;;;1.23;;
39344;SDS011;25061;51.954;6.996;2023-02-28T12:27:33;2.80;;;1.15;;
39344;SDS011;25061;51.954;6.996;2023-02-28T12:30:04;2.63;;;1.10;;
39344;SDS011;25061;51.954;6.996;2023-02-28T12:32:52;3.50;;;1.00;;
39344;SDS011;25061;51.954;6.996;2023-02-28T12:38:06;3.15;;;1.20;;
39344;SDS011;25061;51.954;6.996;2023-02-28T12:43:20;3.63;;;1.10;;
39344;SDS011;25061;51.954;6.996;2023-02-28T12:45:49;3.47;;;1.23;;
39344;SDS011;25061;51.954;6.996;2023-02-28T12:48:28;2.20;;;1.10;;
39344;SDS011;25061;51.954;6.996;2023-02-28T12:50:54;3.97;;;1.20;;
39344;SDS011;25061;51.954;6.996;2023-02-28T12:58:39;2.90;;;1.30;;
39344;SDS011;25061;51.954;6.996;2023-02-28T13:01:42;4.05;;;1.20;;
39344;SDS011;25061;51.954;6.996;2023-02-28T13:09:59;2.95;;;1.13;;
39344;SDS011;25061;51.954;6.996;2023-02-28T13:12:27;3.45;;;1.10;;
39344;SDS011;25061;51.954;6.996;2023-02-28T13:17:31;2.95;;;1.20;;
39344;SDS011;25061;51.954;6.996;2023-02-28T13:19:58;4.15;;;1.20;;
39344;SDS011;25061;51.954;6.996;2023-02-28T13:24:53;3.03;;;1.23;;
39344;SDS011;25061;51.954;6.996;2023-02-28T13:27:32;3.00;;;1.10;;
39344;SDS011;25061;51.954;6.996;2023-02-28T13:29:59;3.47;;;1.40;;
39344;SDS011;25061;51.954;6.996;2023-02-28T13:32:33;7.07;;;1.70;;
39344;SDS011;25061;51.954;6.996;2023-02-28T13:39:56;3.20;;;1.20;;
39344;SDS011;25061;51.954;6.996;2023-02-28T14:06:52;3.47;;;1.27;;
39344;SDS011;25061;51.954;6.996;2023-02-28T14:09:24;3.70;;;1.42;;
39344;SDS011;25061;51.954;6.996;2023-02-28T14:11:56;9.65;;;2.25;;
39344;SDS011;25061;51.954;6.996;2023-02-28T14:17:01;6.75;;;1.90;;
39344;SDS011;25061;51.954;6.996;2023-02-28T14:19:29;3.70;;;1.45;;
39344;SDS011;25061;51.954;6.996;2023-02-28T14:27:50;5.93;;;1.77;;
39344;SDS011;25061;51.954;6.996;2023-02-28T14:31:01;4.47;;;1.88;;
39344;SDS011;25061;51.954;6.996;2023-02-28T14:36:20;4.20;;;1.40;;
39344;SDS011;25061;51.954;6.996;2023-02-28T14:38:53;3.85;;;1.70;;
39344;SDS011;25061;51.954;6.996;2023-02-28T14:43:57;5.32;;;1.48;;
39344;SDS011;25061;51.954;6.996;2023-02-28T14:46:26;3.42;;;1.38;;
39344;SDS011;25061;51.954;6.996;2023-02-28T14:48:57;3.55;;;1.50;;
39344;SDS011;25061;51.954;6.996;2023-02-28T14:51:24;5.70;;;1.50;;
39344;SDS011;25061;51.954;6.996;2023-02-28T14:53:51;3.15;;;1.30;;
39344;SDS011;25061;51.954;6.996;2023-02-28T14:56:23;3.70;;;1.52;;
39344;SDS011;25061;51.954;6.996;2023-02-28T14:58:53;5.65;;;1.77;;
39344;SDS011;25061;51.954;6.996;2023-02-28T15:01:21;2.60;;;1.20;;
39344;SDS011;25061;51.954;6.996;2023-02-28T15:03:48;3.38;;;1.60;;
39344;SDS011;25061;51.954;6.996;2023-02-28T15:06:23;3.83;;;1.45;;
39344;SDS011;25061;51.954;6.996;2023-02-28T15:09:05;3.40;;;1.50;;
39344;SDS011;25061;51.954;6.996;2023-02-28T15:11:32;3.80;;;1.65;;
39344;SDS011;25061;51.954;6.996;2023-02-28T15:13:58;5.03;;;1.60;;
39344;SDS011;25061;51.954;6.996;2023-02-28T15:16:26;5.70;;;1.60;;
39344;SDS011;25061;51.954;6.996;2023-02-28T15:19:02;3.35;;;1.60;;
39344;SDS011;25061;51.954;6.996;2023-02-28T15:21:48;3.20;;;1.42;;
39344;SDS011;25061;51.954;6.996;2023-02-28T15:26:59;4.25;;;1.83;;
39344;SDS011;25061;51.954;6.996;2023-02-28T15:29:46;5.55;;;1.45;;
39344;SDS011;25061;51.954;6.996;2023-02-28T15:32:35;4.05;;;1.30;;
39344;SDS011;25061;51.954;6.996;2023-02-28T15:35:20;7.20;;;1.75;;
39344;SDS011;25061;51.954;6.996;2023-02-28T15:37:57;4.47;;;1.60;;
39344;SDS011;25061;51.954;6.996;2023-02-28T15:42:58;4.68;;;1.50;;
39344;SDS011;25061;51.954;6.996;2023-02-28T15:45:30;4.10;;;1.40;;
39344;SDS011;25061;51.954;6.996;2023-02-28T15:48:27;4.13;;;1.55;;
39344;SDS011;25061;51.954;6.996;2023-02-28T15:51:01;4.22;;;1.52;;
39344;SDS011;25061;51.954;6.996;2023-02-28T15:53:37;4.32;;;1.40;;
39344;SDS011;25061;51.954;6.996;2023-02-28T15:58:48;3.10;;;1.48;;
39344;SDS011;25061;51.954;6.996;2023-02-28T16:01:23;5.63;;;1.77;;
39344;SDS011;25061;51.954;6.996;2023-02-28T16:03:51;4.47;;;1.80;;
39344;SDS011;25061;51.954;6.996;2023-02-28T16:06:21;4.30;;;1.38;;
39344;SDS011;25061;51.954;6.996;2023-02-28T16:08:53;6.22;;;2.10;;
39344;SDS011;25061;51.954;6.996;2023-02-28T16:11:20;4.97;;;1.75;;
39344;SDS011;25061;51.954;6.996;2023-02-28T16:13:47;3.17;;;1.38;;
39344;SDS011;25061;51.954;6.996;2023-02-28T16:16:17;4.18;;;1.65;;
39344;SDS011;25061;51.954;6.996;2023-02-28T16:18:45;5.03;;;1.60;;
39344;SDS011;25061;51.954;6.996;2023-02-28T16:21:11;6.05;;;1.80;;
39344;SDS011;25061;51.954;6.996;2023-02-28T16:23:37;5.53;;;1.95;;
39344;SDS011;25061;51.954;6.996;2023-02-28T16:26:03;5.70;;;1.90;;
39344;SDS011;25061;51.954;6.996;2023-02-28T16:28:30;3.95;;;1.40;;
39344;SDS011;25061;51.954;6.996;2023-02-28T16:30:59;6.07;;;2.13;;
39344;SDS011;25061;51.954;6.996;2023-02-28T16:33:27;5.15;;;1.67;;
39344;SDS011;25061;51.954;6.996;2023-02-28T16:35:54;5.47;;;1.65;;
39344;SDS011;25061;51.954;6.996;2023-02-28T16:38:19;4.88;;;1.65;;
39344;SDS011;25061;51.954;6.996;2023-02-28T16:40:46;4.20;;;1.58;;
39344;SDS011;25061;51.954;6.996;2023-02-28T16:43:18;5.45;;;2.03;;
39344;SDS011;25061;51.954;6.996;2023-02-28T16:45:47;3.95;;;1.70;;
39344;SDS011;25061;51.954;6.996;2023-02-28T16:48:14;5.93;;;2.00;;
39344;SDS011;25061;51.954;6.996;2023-02-28T16:50:43;4.65;;;1.67;;
39344;SDS011;25061;51.954;6.996;2023-02-28T16:53:09;5.22;;;1.88;;
39344;SDS011;25061;51.954;6.996;2023-02-28T16:55:35;8.57;;;1.90;;
39344;SDS011;25061;51.954;6.996;2023-02-28T16:58:02;4.53;;;1.70;;
39344;SDS011;25061;51.954;6.996;2023-02-28T17:00:29;5.43;;;1.85;;
39344;SDS011;25061;51.954;6.996;2023-02-28T17:02:56;6.03;;;1.85;;
39344;SDS011;25061;51.954;6.996;2023-02-28T17:05:24;7.88;;;2.08;;
39344;SDS011;25061;51.954;6.996;2023-02-28T17:07:50;6.55;;;2.35;;
39344;SDS011;25061;51.954;6.996;2023-02-28T17:10:20;9.02;;;3.08;;
39344;SDS011;25061;51.954;6.996;2023-02-28T17:12:48;7.25;;;2.60;;
39344;SDS011;25061;51.954;6.996;2023-02-28T17:15:14;5.40;;;2.10;;
39344;SDS011;25061;51.954;6.996;2023-02-28T17:17:41;5.93;;;2.10;;
39344;SDS011;25061;51.954;6.996;2023-02-28T17:20:14;4.95;;;2.30;;
39344;SDS011;25061;51.954;6.996;2023-02-28T17:22:47;7.40;;;2.53;;
39344;SDS011;25061;51.954;6.996;2023-02-28T17:25:13;8.75;;;2.60;;
39344;SDS011;25061;51.954;6.996;2023-02-28T17:27:38;7.40;;;2.80;;
39344;SDS011;25061;51.954;6.996;2023-02-28T17:30:26;8.65;;;2.70;;